createdAt,value
2018-12-01T00:02:32.046Z,12.73
2018-12-01T00:06:44.141Z,13.40
2018-12-01T00:10:56.430Z,15.33
2018-12-01T00:15:10.929Z,16.70
2018-12-01T00:19:22.877Z,18.83
2018-12-01T00:23:34.920Z,17.30
2018-12-01T00:27:47.047Z,11.93
2018-12-01T00:31:59.249Z,13.60
2018-12-01T00:36:11.352Z,18.27
2018-12-01T00:40:23.760Z,19.70
2018-12-01T00:44:36.120Z,17.00
2018-12-01T00:48:48.306Z,11.13
2018-12-01T00:53:00.407Z,16.70
2018-12-01T00:57:12.502Z,17.00
2018-12-01T01:01:24.826Z,20.90
2018-12-01T01:05:36.990Z,13.67
2018-12-01T01:09:49.236Z,13.10
2018-12-01T01:14:01.543Z,14.13
2018-12-01T01:18:13.782Z,21.10
2018-12-01T01:22:26.072Z,19.33
2018-12-01T01:26:38.277Z,20.43
2018-12-01T01:30:50.497Z,25.60
2018-12-01T01:35:02.616Z,13.60
2018-12-01T01:39:14.969Z,18.13
2018-12-01T01:43:27.128Z,17.13
2018-12-01T01:47:39.391Z,21.50
2018-12-01T01:51:51.642Z,18.10
2018-12-01T01:56:03.768Z,12.67
2018-12-01T02:00:17.717Z,11.07
2018-12-01T02:04:30.027Z,15.77
2018-12-01T02:08:42.226Z,11.33
2018-12-01T02:12:54.429Z,14.43
2018-12-01T02:17:06.889Z,10.80
2018-12-01T02:21:18.995Z,13.63
2018-12-01T02:25:31.094Z,14.20
2018-12-01T02:29:43.323Z,14.67
2018-12-01T02:33:55.400Z,14.23
2018-12-01T02:38:07.519Z,17.00
2018-12-01T02:42:19.619Z,15.60
2018-12-01T02:46:41.411Z,17.33
2018-12-01T02:50:53.477Z,13.57
2018-12-01T02:55:05.589Z,14.87
2018-12-01T02:59:17.683Z,15.37
2018-12-01T03:03:29.904Z,16.07
2018-12-01T03:07:42.215Z,21.23
2018-12-01T03:11:54.410Z,15.87
2018-12-01T03:16:06.736Z,17.70
2018-12-01T03:20:19.412Z,23.93
2018-12-01T03:24:31.352Z,24.17
2018-12-01T03:28:43.526Z,27.77
2018-12-01T03:32:56.381Z,28.87
2018-12-01T03:37:08.508Z,28.10
2018-12-01T03:41:20.496Z,23.80
2018-12-01T03:45:32.508Z,30.93
2018-12-01T03:49:44.762Z,25.97
2018-12-01T03:53:56.930Z,29.27
2018-12-01T03:58:09.240Z,33.37
2018-12-01T04:02:21.557Z,29.93
2018-12-01T04:06:33.882Z,30.83
2018-12-01T04:10:46.092Z,35.23
2018-12-01T04:14:58.202Z,19.90
2018-12-01T04:19:10.204Z,26.80
2018-12-01T04:23:22.304Z,28.60
2018-12-01T04:27:34.518Z,33.97
2018-12-01T04:31:46.819Z,32.17
2018-12-01T04:35:59.049Z,25.17
2018-12-01T04:40:11.518Z,29.73
2018-12-01T04:44:23.826Z,24.93
2018-12-01T04:48:36.044Z,30.10
2018-12-01T04:52:49.491Z,28.67
2018-12-01T04:57:01.182Z,25.23
2018-12-01T05:01:13.388Z,31.33
2018-12-01T05:05:25.372Z,17.87
2018-12-01T05:09:37.323Z,23.63
2018-12-01T05:13:49.444Z,22.93
2018-12-01T05:18:01.576Z,30.47
2018-12-01T05:22:13.579Z,24.97
2018-12-01T05:26:25.678Z,28.73
2018-12-01T05:30:37.780Z,28.90
2018-12-01T05:34:49.987Z,28.17
2018-12-01T05:39:02.200Z,27.73
2018-12-01T05:43:14.568Z,33.90
2018-12-01T05:47:26.713Z,24.10
2018-12-01T05:51:38.923Z,34.43
2018-12-01T05:55:51.162Z,31.07
2018-12-01T06:00:03.203Z,28.40
2018-12-01T06:04:15.374Z,26.70
2018-12-01T06:08:27.460Z,32.67
2018-12-01T06:12:39.692Z,29.17
2018-12-01T06:16:51.785Z,36.23
2018-12-01T06:21:04.205Z,34.13
2018-12-01T06:25:17.052Z,40.90
2018-12-01T06:29:29.019Z,34.43
2018-12-01T06:33:41.082Z,30.50
2018-12-01T06:37:53.493Z,38.93
2018-12-01T06:42:05.327Z,36.33
2018-12-01T06:46:17.379Z,35.73
2018-12-01T06:50:29.368Z,35.33
2018-12-01T06:54:41.574Z,38.90
2018-12-01T06:58:53.911Z,41.27
2018-12-01T07:03:06.218Z,44.50
2018-12-01T07:07:18.419Z,31.73
2018-12-01T07:11:30.631Z,37.40
2018-12-01T07:15:43.026Z,32.73
2018-12-01T07:19:55.238Z,36.10
2018-12-01T07:24:07.570Z,35.30
2018-12-01T07:28:19.722Z,31.40
2018-12-01T07:32:31.923Z,39.77
2018-12-01T07:36:43.993Z,32.50
2018-12-01T07:40:56.215Z,22.80
2018-12-01T07:45:10.061Z,24.97
2018-12-01T07:49:22.160Z,27.10
2018-12-01T07:53:34.363Z,30.73
2018-12-01T07:57:46.566Z,24.53
2018-12-01T08:01:58.878Z,32.27
2018-12-01T08:06:10.577Z,27.33
2018-12-01T08:10:22.462Z,31.17
2018-12-01T08:14:34.359Z,34.03
2018-12-01T08:18:46.435Z,24.83
2018-12-01T08:22:58.642Z,36.17
2018-12-01T08:27:10.621Z,31.23
2018-12-01T08:31:22.835Z,37.53
2018-12-01T08:35:35.045Z,40.83
2018-12-01T08:39:47.366Z,31.03
2018-12-01T08:43:59.670Z,36.60
2018-12-01T08:48:11.871Z,33.60
2018-12-01T08:53:27.944Z,36.43
2018-12-01T08:57:39.835Z,31.83
2018-12-01T09:01:51.842Z,38.80
2018-12-01T09:06:03.727Z,34.07
2018-12-01T09:10:15.983Z,38.67
2018-12-01T09:14:28.022Z,42.80
2018-12-01T09:18:40.142Z,31.47
2018-12-01T09:22:52.226Z,46.20
2018-12-01T09:27:04.506Z,41.73
2018-12-01T09:31:16.737Z,34.10
2018-12-01T09:35:28.870Z,34.37
2018-12-01T09:39:41.163Z,26.30
2018-12-01T09:43:53.483Z,54.20
2018-12-01T09:48:05.873Z,35.83
2018-12-01T09:52:18.115Z,35.97
2018-12-01T09:56:30.328Z,35.60
2018-12-01T10:00:42.534Z,31.73
2018-12-01T10:04:54.573Z,31.70
2018-12-01T10:09:09.275Z,26.50
2018-12-01T10:13:21.415Z,20.97
2018-12-01T10:17:33.433Z,26.23
2018-12-01T10:21:45.631Z,28.17
2018-12-01T10:25:57.848Z,37.57
2018-12-01T10:30:19.129Z,26.83
2018-12-01T10:34:31.471Z,26.40
2018-12-01T10:38:43.687Z,24.63
2018-12-01T10:42:55.601Z,28.00
2018-12-01T10:47:07.565Z,33.60
2018-12-01T10:51:43.214Z,22.70
2018-12-01T10:55:56.179Z,23.50
2018-12-01T11:00:11.127Z,29.50
2018-12-01T11:04:28.190Z,21.33
2018-12-01T11:08:40.404Z,20.57
2018-12-01T11:12:52.847Z,19.70
2018-12-01T11:17:04.958Z,21.00
2018-12-01T11:21:17.049Z,18.73
2018-12-01T11:25:29.170Z,16.40
2018-12-01T11:29:58.222Z,21.17
2018-12-01T11:34:10.912Z,14.93
2018-12-01T11:38:36.943Z,20.00
2018-12-01T11:42:49.757Z,18.20
2018-12-01T11:47:02.027Z,20.07
2018-12-01T11:51:14.180Z,21.33
2018-12-01T11:55:26.530Z,17.00
2018-12-01T11:59:38.604Z,23.10
2018-12-01T12:03:50.732Z,21.43
2018-12-01T12:08:24.054Z,18.53
2018-12-01T12:12:53.556Z,19.93
2018-12-01T12:17:23.557Z,17.90
2018-12-01T12:21:57.931Z,17.43
2018-12-01T12:26:10.109Z,19.60
2018-12-01T12:30:25.895Z,14.30
2018-12-01T12:34:36.078Z,15.17
2018-12-01T12:38:47.965Z,19.57
2018-12-01T12:43:00.780Z,25.17
2018-12-01T12:47:12.962Z,27.70
2018-12-01T12:51:25.331Z,16.30
2018-12-01T12:55:37.413Z,22.60
2018-12-01T12:59:49.498Z,21.90
2018-12-01T13:04:01.703Z,27.57
2018-12-01T13:08:14.634Z,20.60
2018-12-01T13:12:26.672Z,19.93
2018-12-01T13:16:38.653Z,12.37
2018-12-01T13:20:50.718Z,14.83
2018-12-01T13:25:02.756Z,13.03
2018-12-01T13:29:14.966Z,16.30
2018-12-01T13:33:27.449Z,16.63
2018-12-01T13:37:39.506Z,16.43
2018-12-01T13:41:52.562Z,15.20
2018-12-01T13:46:04.483Z,14.77
2018-12-01T13:50:18.452Z,16.70
2018-12-01T13:54:30.456Z,15.33
2018-12-01T13:58:42.395Z,17.60
2018-12-01T14:02:54.508Z,17.03
2018-12-01T14:07:06.736Z,18.17
2018-12-01T14:11:18.724Z,16.27
2018-12-01T14:15:30.820Z,17.87
2018-12-01T14:19:43.027Z,17.23
2018-12-01T14:23:55.262Z,16.67
2018-12-01T14:28:08.676Z,13.90
2018-12-01T14:32:20.577Z,14.37
2018-12-01T14:36:32.536Z,16.40
2018-12-01T14:40:46.358Z,23.20
2018-12-01T14:44:58.287Z,23.33
2018-12-01T14:49:10.207Z,16.17
2018-12-01T14:53:22.265Z,16.90
2018-12-01T14:57:34.398Z,15.33
2018-12-01T15:01:46.593Z,17.93
2018-12-01T15:05:58.686Z,21.47
2018-12-01T15:10:26.362Z,20.97
2018-12-01T15:14:38.682Z,20.83
2018-12-01T15:18:50.780Z,17.70
2018-12-01T15:23:03.002Z,17.80
2018-12-01T15:27:15.104Z,26.37
2018-12-01T15:31:27.343Z,24.37
2018-12-01T15:35:39.539Z,23.97
2018-12-01T15:39:51.731Z,19.40
2018-12-01T15:44:04.272Z,18.20
2018-12-01T15:48:16.205Z,21.73
2018-12-01T15:52:28.296Z,22.23
2018-12-01T15:56:40.471Z,20.33
2018-12-01T16:00:52.940Z,21.83
2018-12-01T16:05:05.357Z,22.03
2018-12-01T16:09:17.438Z,26.10
2018-12-01T16:13:30.180Z,22.80
2018-12-01T16:17:42.043Z,20.67
2018-12-01T16:21:54.167Z,22.60
2018-12-01T16:26:07.006Z,23.37
2018-12-01T16:30:19.925Z,22.77
2018-12-01T16:34:31.956Z,21.97
2018-12-01T16:38:44.031Z,27.80
2018-12-01T16:42:56.572Z,33.17
2018-12-01T16:47:08.753Z,33.53
2018-12-01T16:51:20.718Z,36.47
2018-12-01T16:55:32.837Z,32.77
2018-12-01T16:59:44.795Z,32.07
2018-12-01T17:03:56.971Z,42.80
2018-12-01T17:08:09.468Z,40.50
2018-12-01T17:12:21.602Z,35.43
2018-12-01T17:16:33.613Z,41.47
2018-12-01T17:20:45.623Z,30.60
2018-12-01T17:24:57.630Z,28.10
2018-12-01T17:29:09.895Z,26.33
2018-12-01T17:33:22.019Z,37.37
2018-12-01T17:37:34.174Z,25.97
2018-12-01T17:41:46.521Z,25.13
2018-12-01T17:45:58.562Z,28.50
2018-12-01T17:50:14.862Z,26.50
2018-12-01T17:54:26.928Z,30.53
2018-12-01T17:58:38.931Z,27.27
2018-12-01T18:02:51.663Z,23.53
2018-12-01T18:07:03.440Z,29.13
2018-12-01T18:11:19.747Z,28.80
2018-12-01T18:15:31.812Z,35.70
2018-12-01T18:19:44.010Z,31.03
2018-12-01T18:23:56.534Z,25.73
2018-12-01T18:28:11.760Z,23.17
2018-12-01T18:32:24.068Z,22.50
2018-12-01T18:36:36.253Z,19.87
2018-12-01T18:40:48.592Z,23.07
2018-12-01T18:45:01.630Z,26.43
2018-12-01T18:49:13.078Z,21.00
2018-12-01T18:53:25.406Z,22.33
2018-12-01T18:57:37.593Z,18.37
2018-12-01T19:01:51.258Z,28.23
2018-12-01T19:06:03.563Z,22.90
2018-12-01T19:10:18.085Z,24.00
2018-12-01T19:14:30.132Z,17.27
2018-12-01T19:18:42.348Z,27.13
2018-12-01T19:22:54.557Z,18.60
2018-12-01T19:27:06.808Z,20.13
2018-12-01T19:31:19.095Z,26.50
2018-12-01T19:35:31.327Z,22.83
2018-12-01T19:39:43.487Z,22.13
2018-12-01T19:43:55.726Z,28.37
2018-12-01T19:48:08.549Z,31.10
2018-12-01T19:52:20.886Z,32.90
2018-12-01T19:56:32.886Z,20.70
2018-12-01T20:00:46.147Z,22.07
2018-12-01T20:04:58.214Z,27.00
2018-12-01T20:09:10.884Z,25.30
2018-12-01T20:13:27.828Z,32.33
2018-12-01T20:17:39.722Z,32.27
2018-12-01T20:21:51.774Z,24.50
2018-12-01T20:26:03.967Z,28.67
2018-12-01T20:30:20.243Z,32.30
2018-12-01T20:34:32.168Z,29.40
2018-12-01T20:38:54.053Z,26.07
2018-12-01T20:43:05.894Z,26.27
2018-12-01T20:47:18.115Z,34.10
2018-12-01T20:51:30.288Z,31.20
2018-12-01T20:55:44.494Z,33.77
2018-12-01T20:59:56.940Z,34.13
2018-12-01T21:04:08.785Z,38.57
2018-12-01T21:08:22.701Z,40.23
2018-12-01T21:12:32.677Z,38.30
2018-12-01T21:16:44.721Z,39.13
2018-12-01T21:20:56.922Z,38.97
2018-12-01T21:25:10.871Z,35.30
2018-12-01T21:29:22.896Z,32.97
2018-12-01T21:33:35.556Z,39.10
2018-12-01T21:37:47.353Z,34.20
2018-12-01T21:41:59.341Z,39.33
2018-12-01T21:46:11.518Z,30.77
2018-12-01T21:50:23.909Z,49.17
2018-12-01T21:54:36.241Z,40.90
2018-12-01T21:58:48.500Z,41.23
2018-12-01T22:03:10.648Z,47.07
2018-12-01T22:07:22.493Z,30.07
2018-12-01T22:11:34.567Z,36.20
2018-12-01T22:15:46.681Z,28.80
2018-12-01T22:19:58.840Z,29.23
2018-12-01T22:24:10.836Z,31.03
2018-12-01T22:28:22.942Z,34.97
2018-12-01T22:32:35.252Z,30.00
2018-12-01T22:36:47.359Z,29.03
2018-12-01T22:40:59.772Z,23.77
2018-12-01T22:45:12.215Z,28.87
2018-12-01T22:49:24.322Z,31.67
2018-12-01T22:53:36.528Z,30.07
2018-12-01T22:57:51.562Z,25.73
2018-12-01T23:02:03.858Z,28.90
2018-12-01T23:06:16.073Z,22.40
2018-12-01T23:10:28.153Z,22.47
2018-12-01T23:14:40.035Z,22.73
2018-12-01T23:18:52.489Z,20.97
2018-12-01T23:23:04.512Z,24.67
2018-12-01T23:27:16.567Z,20.30
2018-12-01T23:31:28.772Z,29.63
2018-12-01T23:35:40.977Z,25.43
2018-12-01T23:39:53.216Z,30.57
2018-12-01T23:44:05.484Z,25.87
2018-12-01T23:48:17.630Z,30.53
2018-12-01T23:52:29.759Z,26.00
2018-12-01T23:56:41.831Z,26.37
